Time;durP1;ratioP1;P1;durP2;ratioP2;P2;SDS_P1;SDS_P2;PMS_P1;PMS_P2;Temp;Humidity;BMP_temperature;BMP_pressure;BME280_temperature;BME280_humidity;BME280_pressure;Samples;Min_cycle;Max_cycle;Signal;HPM_P1;HPM_P2
2022/06/19 00:02:30;;;;;;;4.25;2.90;;;20.40;48.10;;;;;;5082875;28;20674;-90
2022/06/19 00:05:16;;;;;;;6.53;4.63;;;20.40;50.20;;;;;;5081587;28;20204;-90
2022/06/19 00:08:16;;;;;;;7.97;3.33;;;20.40;51.50;;;;;;5078181;28;20731;-90
2022/06/19 00:10:43;;;;;;;9.63;3.65;;;20.30;51.30;;;;;;5078744;28;20660;-90
2022/06/19 00:13:22;;;;;;;7.50;3.53;;;20.20;51.00;;;;;;5083196;28;20228;-90
2022/06/19 00:15:58;;;;;;;6.68;3.10;;;20.10;53.50;;;;;;5092892;28;20659;-90
2022/06/19 00:18:43;;;;;;;4.28;3.10;;;20.00;55.80;;;;;;5094232;28;20192;-90
2022/06/19 00:21:17;;;;;;;7.65;3.00;;;20.00;54.60;;;;;;5092182;28;20204;-91
2022/06/19 00:23:47;;;;;;;11.65;3.38;;;20.00;53.90;;;;;;5084923;28;20205;-90
2022/06/19 00:26:22;;;;;;;6.70;3.58;;;20.10;55.10;;;;;;5093743;28;20204;-90
2022/06/19 00:28:58;;;;;;;5.88;3.15;;;20.10;53.90;;;;;;5083675;28;20196;-90
2022/06/19 00:31:28;;;;;;;8.32;3.28;;;20.10;53.20;;;;;;5090523;28;20632;-90
2022/06/19 00:33:59;;;;;;;8.77;3.50;;;20.00;53.70;;;;;;5086713;28;20196;-90
2022/06/19 00:36:27;;;;;;;9.90;3.83;;;20.00;54.30;;;;;;5094280;28;20208;-90
2022/06/19 00:39:39;;;;;;;7.10;3.30;;;20.00;55.00;;;;;;5093817;28;20197;-90
2022/06/19 00:42:16;;;;;;;7.82;3.13;;;20.00;53.10;;;;;;5092585;28;20235;-89
2022/06/19 00:44:43;;;;;;;8.55;3.20;;;20.00;53.20;;;;;;5082593;28;20199;-89
2022/06/19 00:47:18;;;;;;;7.22;3.47;;;19.90;52.60;;;;;;5080792;28;20193;-90
2022/06/19 00:49:55;;;;;;;13.45;3.95;;;19.90;52.50;;;;;;5085438;28;20222;-90
2022/06/19 00:52:24;;;;;;;8.77;3.75;;;19.90;51.80;;;;;;5086883;28;20224;-90
2022/06/19 00:55:08;;;;;;;8.27;3.50;;;19.80;51.50;;;;;;5081070;28;20196;-90
2022/06/19 00:57:50;;;;;;;10.63;3.20;;;19.80;51.50;;;;;;5093705;28;20209;-90
2022/06/19 01:00:34;;;;;;;7.28;3.60;;;19.90;52.40;;;;;;5088919;28;20241;-91
2022/06/19 01:03:05;;;;;;;7.68;2.97;;;20.00;53.60;;;;;;5077937;28;20220;-91
2022/06/19 01:05:37;;;;;;;12.85;4.50;;;20.00;52.30;;;;;;5082336;28;20204;-91
2022/06/19 01:08:16;;;;;;;11.07;4.18;;;20.00;53.60;;;;;;5084986;28;20644;-90
2022/06/19 01:10:49;;;;;;;5.70;3.40;;;19.90;51.30;;;;;;5096224;28;20196;-91
2022/06/19 01:13:19;;;;;;;8.75;3.50;;;19.90;52.40;;;;;;5090180;28;20225;-91
2022/06/19 01:15:46;;;;;;;9.02;3.45;;;19.90;52.30;;;;;;5093509;28;20558;-90
2022/06/19 01:18:14;;;;;;;10.02;3.28;;;19.80;52.50;;;;;;5085143;28;20301;-90
2022/06/19 01:20:43;;;;;;;13.32;3.60;;;19.70;53.20;;;;;;5097168;28;20214;-90
2022/06/19 01:23:42;;;;;;;11.25;3.80;;;19.60;54.30;;;;;;5089429;28;20189;-89
2022/06/19 01:26:14;;;;;;;10.60;3.58;;;19.50;55.50;;;;;;5093249;28;20640;-90
2022/06/19 01:28:55;;;;;;;9.70;3.65;;;19.50;56.60;;;;;;5089786;28;20197;-88
2022/06/19 01:31:36;;;;;;;10.88;3.97;;;19.40;55.30;;;;;;5086337;28;20251;-89
2022/06/19 01:34:32;;;;;;;10.15;3.60;;;19.30;56.80;;;;;;5087802;28;20189;-89
2022/06/19 01:37:17;;;;;;;11.45;3.78;;;19.30;55.30;;;;;;5084234;28;20201;-90
2022/06/19 01:40:06;;;;;;;13.93;3.67;;;19.30;55.30;;;;;;5089580;28;20207;-90
2022/06/19 01:42:36;;;;;;;7.90;3.30;;;19.30;55.30;;;;;;5094327;28;20576;-90
2022/06/19 01:45:17;;;;;;;12.07;4.05;;;19.30;55.30;;;;;;5085610;28;20208;-90
2022/06/19 01:47:46;;;;;;;24.65;4.47;;;19.30;55.30;;;;;;5093880;28;20556;-90
2022/06/19 01:50:25;;;;;;;9.88;3.45;;;19.30;55.30;;;;;;5083258;28;20224;-90
2022/06/19 01:52:57;;;;;;;11.43;3.58;;;19.30;55.30;;;;;;5090745;28;20255;-91
2022/06/19 01:55:29;;;;;;;10.65;3.70;;;19.40;55.30;;;;;;5085024;28;20191;-89
2022/06/19 01:58:00;;;;;;;10.07;3.88;;;19.40;55.30;;;;;;5085253;28;20274;-90
2022/06/19 02:00:30;;;;;;;11.95;3.85;;;19.30;55.30;;;;;;5081460;28;20200;-90
2022/06/19 02:03:16;;;;;;;12.98;3.67;;;19.30;55.30;;;;;;5095977;28;20193;-90
2022/06/19 02:05:43;;;;;;;9.38;3.72;;;19.30;55.30;;;;;;5090934;28;20220;-90
2022/06/19 02:08:23;;;;;;;10.70;4.50;;;19.20;55.20;;;;;;5081801;28;20205;-90
2022/06/19 02:10:53;;;;;;;13.00;4.03;;;19.20;57.20;;;;;;5104121;28;20203;-90
2022/06/19 02:13:38;;;;;;;11.52;3.95;;;19.10;56.60;;;;;;5106666;28;20209;-89
2022/06/19 02:16:20;;;;;;;12.98;4.13;;;19.00;57.80;;;;;;5077739;28;20657;-90
2022/06/19 02:18:49;;;;;;;8.45;3.30;;;19.10;59.30;;;;;;5089145;28;20205;-91
2022/06/19 02:21:37;;;;;;;17.88;4.10;;;19.00;59.10;;;;;;5078707;28;20203;-89
2022/06/19 02:24:06;;;;;;;11.13;4.13;;;18.90;59.50;;;;;;5082166;28;20223;-90
2022/06/19 02:26:36;;;;;;;11.40;4.25;;;18.90;61.50;;;;;;5088788;28;20613;-90
2022/06/19 02:29:11;;;;;;;7.18;3.58;;;18.80;61.80;;;;;;5080551;28;20235;-91
2022/06/19 02:31:49;;;;;;;13.70;4.10;;;18.80;62.90;;;;;;5087539;28;20207;-90
2022/06/19 02:34:21;;;;;;;13.00;4.30;;;18.80;64.90;;;;;;5081620;28;20210;-90
2022/06/19 02:36:52;;;;;;;10.55;3.88;;;18.80;63.90;;;;;;5077572;28;20197;-90
2022/06/19 02:39:44;;;;;;;10.82;4.18;;;18.80;63.50;;;;;;5076219;28;20208;-91
2022/06/19 02:42:39;;;;;;;13.57;4.13;;;18.80;63.80;;;;;;5072367;28;20232;-89
2022/06/19 02:45:20;;;;;;;11.63;4.10;;;18.60;65.80;;;;;;5067838;28;20254;-90
2022/06/19 02:47:49;;;;;;;12.80;4.57;;;18.50;66.70;;;;;;5088504;28;20196;-91
2022/06/19 02:50:25;;;;;;;12.57;4.00;;;18.50;69.10;;;;;;5077961;28;20558;-90
2022/06/19 02:52:58;;;;;;;12.05;4.20;;;18.40;68.50;;;;;;5085727;28;20602;-90
2022/06/19 02:55:46;;;;;;;6.82;3.60;;;18.30;70.20;;;;;;5082734;28;20219;-90
2022/06/19 02:58:13;;;;;;;10.07;4.18;;;18.30;71.00;;;;;;5080470;28;20208;-89
2022/06/19 03:00:48;;;;;;;9.18;3.80;;;18.30;72.60;;;;;;5078899;28;20259;-90
2022/06/19 03:03:23;;;;;;;13.75;4.10;;;18.20;73.10;;;;;;5080871;28;20208;-90
2022/06/19 03:05:50;;;;;;;9.10;4.28;;;18.20;73.40;;;;;;5085226;28;20543;-89
2022/06/19 03:08:22;;;;;;;8.07;4.40;;;18.20;72.30;;;;;;5096837;28;20648;-90
2022/06/19 03:10:49;;;;;;;12.00;4.35;;;18.20;72.80;;;;;;5094610;28;20620;-90
2022/06/19 03:13:23;;;;;;;12.90;3.90;;;18.10;74.10;;;;;;5075860;28;20740;-90
2022/06/19 03:16:07;;;;;;;10.75;5.95;;;18.10;75.40;;;;;;5087929;28;20200;-90
2022/06/19 03:18:40;;;;;;;11.50;4.57;;;18.10;75.50;;;;;;5082949;28;20201;-90
2022/06/19 03:21:16;;;;;;;10.68;4.30;;;18.10;75.40;;;;;;5080171;28;20216;-90
2022/06/19 03:23:46;;;;;;;12.15;4.30;;;18.10;73.80;;;;;;5083149;28;20196;-89
2022/06/19 03:26:17;;;;;;;9.15;4.15;;;18.10;74.00;;;;;;5080367;28;20202;-90
2022/06/19 03:28:46;;;;;;;13.98;4.18;;;18.10;72.90;;;;;;5085412;28;20714;-90
2022/06/19 03:31:19;;;;;;;16.52;4.00;;;18.10;71.70;;;;;;5086202;28;20567;-90
2022/06/19 03:33:46;;;;;;;14.95;4.43;;;18.10;71.60;;;;;;5081839;28;20225;-90
2022/06/19 03:36:28;;;;;;;9.98;3.97;;;18.10;71.30;;;;;;5087914;28;20211;-90
2022/06/19 03:39:36;;;;;;;10.50;4.50;;;18.10;71.90;;;;;;5082323;28;20209;-90
2022/06/19 03:42:04;;;;;;;8.43;3.97;;;18.10;71.60;;;;;;5086332;28;20227;-89
2022/06/19 03:44:52;;;;;;;10.15;3.80;;;18.10;72.00;;;;;;5080232;28;20677;-89
2022/06/19 03:47:23;;;;;;;13.05;3.58;;;18.10;69.50;;;;;;5086795;28;20198;-90
2022/06/19 03:50:05;;;;;;;8.35;3.55;;;18.20;67.80;;;;;;5088149;28;20644;-90
2022/06/19 03:52:34;;;;;;;10.82;3.85;;;18.30;63.80;;;;;;5084897;28;20664;-90
2022/06/19 03:55:01;;;;;;;8.75;3.72;;;18.30;63.60;;;;;;5085536;28;20203;-90
2022/06/19 03:57:34;;;;;;;12.88;3.90;;;18.40;63.10;;;;;;5088904;28;20236;-90
2022/06/19 04:00:28;;;;;;;11.13;4.30;;;18.50;62.60;;;;;;5095083;28;20200;-90
2022/06/19 04:02:59;;;;;;;13.68;4.20;;;18.50;62.30;;;;;;5096570;28;20188;-89
2022/06/19 04:05:26;;;;;;;13.30;4.00;;;18.60;61.90;;;;;;5094565;28;20196;-89
2022/06/19 04:07:53;;;;;;;17.00;4.03;;;18.70;59.80;;;;;;5098641;28;20204;-90
2022/06/19 04:10:28;;;;;;;12.38;4.00;;;18.80;58.20;;;;;;5084694;28;20205;-90
2022/06/19 04:13:10;;;;;;;11.43;4.22;;;18.90;58.90;;;;;;5096572;28;20535;-90
2022/06/19 04:16:05;;;;;;;8.55;3.60;;;18.90;59.70;;;;;;5090020;28;20569;-90
2022/06/19 04:18:41;;;;;;;11.10;4.15;;;18.90;57.40;;;;;;5085520;28;20201;-90
2022/06/19 04:22:03;;;;;;;21.45;4.63;;;18.90;54.90;;;;;;5080610;28;20203;-90
2022/06/19 04:24:30;;;;;;;10.77;3.70;;;19.00;55.00;;;;;;5090548;28;20255;-90
2022/06/19 04:27:05;;;;;;;12.85;4.00;;;19.10;55.10;;;;;;5090483;28;20213;-90
2022/06/19 04:29:46;;;;;;;13.05;4.15;;;19.20;57.00;;;;;;5079304;28;20660;-89
2022/06/19 04:32:22;;;;;;;14.18;4.13;;;19.20;55.20;;;;;;5080971;28;20197;-91
2022/06/19 04:35:27;;;;;;;12.00;3.70;;;19.20;55.30;;;;;;5091720;28;20202;-89
2022/06/19 04:37:56;;;;;;;12.27;4.10;;;19.30;55.90;;;;;;5087442;28;20200;-89
2022/06/19 04:40:23;;;;;;;15.75;4.15;;;19.40;55.40;;;;;;5091795;28;20201;-89
2022/06/19 04:42:49;;;;;;;15.60;4.18;;;19.50;55.50;;;;;;5080857;28;20177;-90
2022/06/19 04:45:16;;;;;;;14.32;3.80;;;19.40;55.90;;;;;;5103728;28;20203;-90
2022/06/19 04:47:52;;;;;;;16.67;4.45;;;19.40;55.30;;;;;;5105049;28;20192;-90
2022/06/19 04:50:34;;;;;;;14.10;4.30;;;19.50;55.40;;;;;;5084196;28;20220;-90
2022/06/19 04:53:17;;;;;;;10.90;3.80;;;19.60;55.50;;;;;;5082500;28;20213;-90
2022/06/19 04:55:52;;;;;;;15.02;4.28;;;19.60;54.40;;;;;;5093265;28;20562;-90
2022/06/19 04:58:22;;;;;;;14.70;4.53;;;19.70;55.60;;;;;;5091320;28;20267;-90
2022/06/19 05:01:11;;;;;;;13.50;4.00;;;19.90;54.70;;;;;;5091054;28;20262;-91
2022/06/19 05:03:40;;;;;;;14.18;4.00;;;20.10;52.90;;;;;;5096883;28;20200;-89
2022/06/19 05:06:07;;;;;;;13.30;4.13;;;20.30;52.40;;;;;;5096827;28;20204;-90
2022/06/19 05:08:54;;;;;;;10.40;3.83;;;20.40;53.10;;;;;;5081353;28;20193;-90
2022/06/19 05:11:58;;;;;;;12.98;3.95;;;20.50;52.40;;;;;;5089716;28;20199;-90
2022/06/19 05:14:28;;;;;;;14.48;4.30;;;20.60;52.50;;;;;;5087266;28;20215;-87
2022/06/19 05:16:55;;;;;;;13.07;4.43;;;20.70;51.80;;;;;;5102054;28;20205;-92
2022/06/19 05:19:22;;;;;;;7.82;3.92;;;20.70;54.60;;;;;;5099209;28;20193;-88
2022/06/19 05:21:49;;;;;;;12.02;3.60;;;20.80;53.00;;;;;;5110102;28;20286;-87
2022/06/19 05:24:36;;;;;;;11.70;4.00;;;20.90;52.20;;;;;;5106978;28;20203;-88
2022/06/19 05:27:07;;;;;;;14.48;4.40;;;20.90;50.00;;;;;;5099940;28;20200;-88
2022/06/19 05:29:34;;;;;;;10.85;3.72;;;21.10;49.90;;;;;;5097030;28;20197;-89
2022/06/19 05:32:04;;;;;;;15.65;4.35;;;21.30;48.80;;;;;;5105805;28;20251;-88
2022/06/19 05:34:31;;;;;;;14.25;4.18;;;21.50;47.70;;;;;;5105235;28;20220;-87
2022/06/19 05:36:58;;;;;;;11.30;3.67;;;21.60;46.90;;;;;;5109947;28;20578;-87
2022/06/19 05:39:25;;;;;;;16.42;4.25;;;21.70;46.50;;;;;;5102895;28;20219;-87
2022/06/19 05:41:54;;;;;;;15.70;4.18;;;21.90;45.10;;;;;;5093392;28;20231;-88
2022/06/19 05:44:21;;;;;;;14.13;4.20;;;22.30;40.60;;;;;;5107420;28;20204;-87
2022/06/19 05:46:48;;;;;;;10.50;3.63;;;22.70;39.70;;;;;;5107935;28;20205;-87
2022/06/19 05:49:16;;;;;;;10.50;3.97;;;23.10;37.40;;;;;;5101323;28;20574;-88
2022/06/19 05:51:52;;;;;;;11.48;4.10;;;23.30;34.80;;;;;;5094777;28;20661;-87
2022/06/19 05:54:19;;;;;;;14.43;4.30;;;23.60;35.10;;;;;;5095985;28;20213;-87
2022/06/19 05:56:46;;;;;;;13.27;4.32;;;23.50;32.00;;;;;;5098492;28;20212;-87
2022/06/19 05:59:18;;;;;;;9.57;3.67;;;23.50;33.20;;;;;;5090735;28;20281;-88
2022/06/19 06:01:45;;;;;;;15.73;4.22;;;23.60;33.00;;;;;;5101168;28;20192;-87
2022/06/19 06:04:12;;;;;;;16.33;4.07;;;23.50;32.70;;;;;;5095312;28;20201;-87
2022/06/19 06:06:52;;;;;;;11.02;3.72;;;23.40;32.40;;;;;;5087401;28;20213;-88
2022/06/19 06:09:19;;;;;;;16.23;4.43;;;23.70;32.20;;;;;;5097960;28;20244;-88
2022/06/19 06:11:46;;;;;;;17.92;5.20;;;23.80;32.50;;;;;;5098637;28;20193;-87
2022/06/19 06:14:13;;;;;;;11.77;4.03;;;23.70;32.60;;;;;;5098308;28;20242;-88
2022/06/19 06:16:48;;;;;;;14.18;4.43;;;23.70;33.50;;;;;;5089351;28;20209;-88
2022/06/19 06:19:15;;;;;;;15.32;4.50;;;23.60;33.60;;;;;;5097887;28;20191;-87
2022/06/19 06:21:42;;;;;;;11.98;4.40;;;23.60;35.10;;;;;;5100722;28;20223;-88
2022/06/19 06:24:22;;;;;;;14.45;4.35;;;23.60;35.10;;;;;;5098635;28;20197;-87
2022/06/19 06:26:49;;;;;;;16.17;4.68;;;23.60;35.10;;;;;;5099166;28;20204;-87
2022/06/19 06:29:28;;;;;;;17.00;4.82;;;23.60;35.10;;;;;;5094076;28;20193;-87
2022/06/19 06:32:06;;;;;;;16.73;4.55;;;23.70;35.20;;;;;;5095180;28;20193;-88
2022/06/19 06:34:34;;;;;;;14.50;4.35;;;23.70;33.00;;;;;;5088359;28;20733;-88
2022/06/19 06:37:04;;;;;;;19.13;4.85;;;23.80;32.70;;;;;;5085213;28;20221;-89
2022/06/19 06:39:40;;;;;;;13.68;4.90;;;23.90;32.90;;;;;;5082327;28;20232;-87
2022/06/19 06:42:16;;;;;;;19.58;5.70;;;24.00;32.90;;;;;;5086002;28;20213;-87
2022/06/19 06:44:46;;;;;;;16.45;4.65;;;24.20;32.90;;;;;;5085811;28;20687;-87
2022/06/19 06:47:15;;;;;;;15.02;4.55;;;24.30;32.20;;;;;;5085634;28;20199;-86
2022/06/19 06:49:41;;;;;;;17.08;4.60;;;24.40;31.30;;;;;;5082706;28;20204;-87
2022/06/19 06:52:16;;;;;;;19.60;5.00;;;24.60;29.80;;;;;;5090304;28;20205;-84
2022/06/19 06:54:52;;;;;;;19.77;5.72;;;24.70;28.50;;;;;;5091630;28;20240;-85
2022/06/19 06:57:19;;;;;;;19.85;4.90;;;24.80;28.80;;;;;;5097344;28;20207;-84
2022/06/19 06:59:46;;;;;;;18.77;4.88;;;25.00;28.60;;;;;;5085581;28;20200;-87
2022/06/19 07:02:24;;;;;;;15.77;4.72;;;25.00;26.30;;;;;;5102034;28;20196;-85
2022/06/19 07:04:51;;;;;;;15.40;4.72;;;25.10;28.40;;;;;;5097323;28;20201;-85
2022/06/19 07:07:28;;;;;;;16.55;5.07;;;25.10;27.70;;;;;;5092999;28;20200;-85
2022/06/19 07:09:58;;;;;;;14.13;4.25;;;25.40;27.60;;;;;;5089809;28;20193;-85
2022/06/19 07:12:25;;;;;;;17.00;4.90;;;25.70;26.70;;;;;;5092368;28;20311;-85
2022/06/19 07:14:52;;;;;;;21.05;5.32;;;25.90;26.10;;;;;;5098152;28;20217;-84
2022/06/19 07:20:42;;;;;;;22.55;5.18;;;26.40;23.60;;;;;;5093664;28;20204;-84
2022/06/19 07:23:09;;;;;;;16.60;5.07;;;26.60;24.30;;;;;;5084421;28;20197;-87
2022/06/19 07:25:40;;;;;;;19.40;5.28;;;26.90;23.60;;;;;;5086598;28;20222;-87
2022/06/19 07:28:34;;;;;;;21.98;4.70;;;27.30;23.50;;;;;;5086640;28;20204;-87
2022/06/19 07:31:01;;;;;;;23.55;5.30;;;27.80;20.60;;;;;;5089401;28;20200;-88
2022/06/19 07:33:46;;;;;;;17.08;5.55;;;27.90;20.60;;;;;;5085766;28;20694;-88
2022/06/19 07:36:21;;;;;;;18.00;5.30;;;27.90;20.70;;;;;;5093828;28;20188;-88
2022/06/19 07:38:48;;;;;;;16.77;5.68;;;27.70;21.30;;;;;;5096598;28;20195;-89
2022/06/19 07:41:17;;;;;;;18.15;5.00;;;27.80;22.30;;;;;;5098782;28;20687;-88
2022/06/19 07:43:49;;;;;;;12.27;4.60;;;27.70;21.40;;;;;;5097503;28;20670;-89
2022/06/19 07:46:16;;;;;;;11.82;4.53;;;27.70;23.70;;;;;;5087267;28;20232;-86
2022/06/19 07:51:29;;;;;;;11.63;5.13;;;28.00;22.60;;;;;;5092610;28;20241;-87
2022/06/19 07:53:59;;;;;;;14.10;5.32;;;28.20;22.40;;;;;;5086675;28;20235;-92
2022/06/19 07:56:35;;;;;;;17.48;5.63;;;28.50;22.70;;;;;;5082785;28;20202;-90
2022/06/19 07:59:03;;;;;;;18.80;6.70;;;28.70;19.70;;;;;;5080238;28;20271;-90
2022/06/19 08:01:34;;;;;;;18.63;5.40;;;28.80;20.00;;;;;;5081014;28;20260;-87
2022/06/19 08:04:01;;;;;;;17.77;5.47;;;29.00;19.20;;;;;;5088310;28;20202;-88
2022/06/19 08:06:48;;;;;;;22.92;7.22;;;29.20;19.10;;;;;;5090128;28;20228;-89
2022/06/19 08:09:15;;;;;;;19.75;6.53;;;29.40;19.60;;;;;;5080565;28;20254;-88
2022/06/19 08:11:46;;;;;;;23.42;8.57;;;29.50;17.90;;;;;;5084185;28;20204;-88
2022/06/19 08:14:13;;;;;;;19.48;5.53;;;29.80;18.30;;;;;;5084927;28;20216;-86
2022/06/19 08:16:41;;;;;;;19.98;5.75;;;30.20;17.60;;;;;;5079737;28;20201;-90
2022/06/19 08:19:08;;;;;;;19.13;6.43;;;31.00;17.20;;;;;;5080636;28;20750;-88
2022/06/19 08:21:48;;;;;;;16.00;5.85;;;32.70;13.90;;;;;;5078787;28;20300;-89
2022/06/19 08:24:17;;;;;;;15.70;5.57;;;34.50;9.30;;;;;;5080234;28;20196;-88
2022/06/19 08:27:10;;;;;;;21.63;7.00;;;36.50;7.90;;;;;;5079657;28;20200;-89
2022/06/19 08:29:40;;;;;;;19.15;6.18;;;38.10;4.60;;;;;;5073714;28;20204;-89
2022/06/19 08:32:10;;;;;;;20.40;6.68;;;38.90;3.50;;;;;;5079881;28;20184;-89
2022/06/19 08:35:10;;;;;;;17.92;6.97;;;39.50;2.50;;;;;;5092337;28;20225;-88
2022/06/19 08:37:45;;;;;;;19.33;6.85;;;40.50;2.30;;;;;;5086599;28;20196;-88
2022/06/19 08:40:41;;;;;;;12.05;6.40;;;40.50;2.30;;;;;;5100041;28;20211;-90
2022/06/19 08:43:32;;;;;;;24.20;7.60;;;40.70;2.40;;;;;;5088171;28;20209;-88
2022/06/19 08:46:20;;;;;;;21.55;7.97;;;41.70;3.10;;;;;;5088579;28;20283;-89
2022/06/19 08:49:24;;;;;;;17.42;7.47;;;41.40;1.40;;;;;;5080099;28;20209;-91
2022/06/19 08:52:10;;;;;;;21.40;7.38;;;41.80;1.00;;;;;;5022586;28;20329;-87
2022/06/19 08:54:49;;;;;;;17.40;8.68;;;41.40;1.00;;;;;;5089421;28;20212;-87
2022/06/19 08:57:26;;;;;;;20.95;7.68;;;41.70;1.00;;;;;;5083414;28;20216;-89
2022/06/19 09:00:16;;;;;;;17.90;8.52;;;43.20;1.00;;;;;;5089585;28;20207;-91
2022/06/19 09:02:57;;;;;;;18.52;8.60;;;43.30;1.00;;;;;;5082211;28;20212;-92
2022/06/19 09:05:36;;;;;;;21.90;9.20;;;43.70;1.00;;;;;;5081264;28;20210;-92
2022/06/19 09:08:33;;;;;;;16.88;9.07;;;43.20;1.00;;;;;;5081102;28;20204;-91
2022/06/19 09:11:31;;;;;;;16.95;9.07;;;43.40;1.00;;;;;;5081888;28;20200;-91
2022/06/19 09:14:08;;;;;;;17.23;9.10;;;43.90;1.00;;;;;;5075654;28;20797;-91
2022/06/19 09:16:51;;;;;;;11.52;8.73;;;43.40;1.00;;;;;;5078154;28;20556;-92
2022/06/19 09:19:46;;;;;;;21.95;9.60;;;43.30;1.00;;;;;;5088682;28;20716;-93
2022/06/19 09:22:33;;;;;;;16.33;9.40;;;43.80;1.00;;;;;;5079185;28;20219;-91
2022/06/19 09:25:33;;;;;;;20.10;10.30;;;45.00;1.00;;;;;;5076005;28;20274;-92
2022/06/19 09:28:28;;;;;;;19.75;9.90;;;44.80;1.00;;;;;;5083962;28;20199;-92
2022/06/19 09:31:01;;;;;;;22.10;11.00;;;44.60;1.00;;;;;;5074058;28;20201;-89
2022/06/19 09:33:34;;;;;;;20.55;11.73;;;44.90;1.00;;;;;;5075631;28;20207;-90
2022/06/19 09:36:19;;;;;;;17.98;10.88;;;45.50;1.00;;;;;;5078074;28;20208;-89
2022/06/19 09:42:52;;;;;;;17.73;11.60;;;45.70;1.00;;;;;;5076096;28;20717;-91
2022/06/19 09:52:11;;;;;;;18.17;11.95;;;44.30;1.00;;;;;;5083554;28;20187;-90
2022/06/19 09:54:44;;;;;;;20.85;11.70;;;44.30;1.00;;;;;;5077594;28;20319;-89
2022/06/19 10:07:24;;;;;;;16.85;12.45;;;43.60;1.00;;;;;;5096161;28;20608;-90
2022/06/19 10:13:18;;;;;;;17.00;11.73;;;43.20;1.00;;;;;;5094063;28;20321;-91
2022/06/19 10:16:15;;;;;;;17.55;11.88;;;43.60;1.00;;;;;;5095940;28;20214;-90
2022/06/19 10:22:37;;;;;;;17.35;11.13;;;41.90;1.00;;;;;;5075987;28;20647;-92
2022/06/19 10:32:03;;;;;;;15.27;10.68;;;43.50;2.80;;;;;;5094533;28;20182;-89
2022/06/19 10:34:53;;;;;;;15.90;10.60;;;42.80;1.00;;;;;;5096914;28;20249;-89
2022/06/19 10:42:00;;;;;;;18.48;10.80;;;43.00;2.00;;;;;;5085584;28;20188;-88
2022/06/19 10:51:10;;;;;;;17.98;9.77;;;40.50;2.30;;;;;;5134287;27;20193;-88
2022/06/19 10:54:04;;;;;;;13.15;9.15;;;40.40;2.30;;;;;;5121717;27;20199;-90
2022/06/19 10:57:08;;;;;;;14.65;10.18;;;41.40;2.20;;;;;;5126665;27;20205;-91
2022/06/19 10:59:52;;;;;;;14.27;8.93;;;41.20;2.60;;;;;;5104356;27;20199;-90
2022/06/19 11:05:32;;;;;;;14.82;9.18;;;40.90;2.50;;;;;;5121982;27;20296;-91
2022/06/19 11:08:13;;;;;;;18.63;9.07;;;39.70;3.40;;;;;;5120546;27;20202;-91
2022/06/19 11:10:50;;;;;;;18.85;8.40;;;38.40;5.00;;;;;;5125203;27;20857;-89
2022/06/19 11:13:57;;;;;;;18.77;8.57;;;38.10;8.90;;;;;;5121462;27;20694;-88
2022/06/19 11:16:25;;;;;;;17.42;8.20;;;37.90;5.60;;;;;;5119997;27;20674;-87
2022/06/19 11:18:54;;;;;;;21.23;8.05;;;37.00;6.60;;;;;;5125175;27;20198;-88
2022/06/19 11:21:26;;;;;;;17.38;7.85;;;36.30;7.80;;;;;;5118846;27;20191;-88
2022/06/19 11:24:02;;;;;;;18.20;8.55;;;35.80;9.90;;;;;;5123069;27;20210;-89
2022/06/19 11:27:04;;;;;;;15.32;7.60;;;35.50;8.80;;;;;;5126605;27;20569;-88
2022/06/19 11:29:49;;;;;;;15.10;8.27;;;35.70;8.10;;;;;;5117445;27;20199;-88
2022/06/19 11:32:20;;;;;;;10.48;7.28;;;35.50;9.30;;;;;;5125825;28;20232;-88
2022/06/19 11:34:58;;;;;;;19.00;8.40;;;35.40;9.70;;;;;;5126956;27;20696;-89
2022/06/19 11:37:32;;;;;;;16.10;8.18;;;35.50;11.50;;;;;;5133091;27;20278;-87
2022/06/19 11:40:21;;;;;;;17.13;7.70;;;35.60;11.60;;;;;;5123314;27;20198;-86
2022/06/19 11:42:50;;;;;;;17.63;7.78;;;35.80;12.30;;;;;;5122380;27;20199;-86
2022/06/19 11:45:28;;;;;;;19.05;8.52;;;35.70;10.10;;;;;;5116512;28;20195;-88
2022/06/19 11:48:14;;;;;;;16.08;8.05;;;35.40;9.70;;;;;;5125847;27;20198;-86
2022/06/19 11:50:57;;;;;;;19.60;8.43;;;35.50;9.90;;;;;;5116273;27;20206;-87
2022/06/19 11:53:54;;;;;;;18.42;7.72;;;34.80;9.40;;;;;;5114515;27;20552;-85
2022/06/19 11:56:35;;;;;;;17.48;8.32;;;34.40;9.70;;;;;;5118304;27;20570;-87
2022/06/19 11:59:24;;;;;;;15.25;7.85;;;34.40;11.60;;;;;;5119774;27;20194;-86
2022/06/19 12:01:52;;;;;;;11.75;7.70;;;34.60;11.10;;;;;;5121670;28;20654;-86
2022/06/19 12:04:33;;;;;;;12.85;8.10;;;35.10;12.60;;;;;;5126567;27;20282;-85
2022/06/19 12:07:02;;;;;;;19.08;8.65;;;35.10;11.60;;;;;;5125663;27;20563;-86
2022/06/19 12:09:34;;;;;;;18.65;7.75;;;35.10;12.00;;;;;;5118257;27;20206;-85
2022/06/19 12:12:25;;;;;;;18.50;8.00;;;35.20;10.60;;;;;;5125884;27;20684;-86
2022/06/19 12:14:59;;;;;;;18.88;8.45;;;35.20;9.60;;;;;;5121873;27;20211;-88
2022/06/19 12:17:36;;;;;;;19.35;8.57;;;35.10;10.20;;;;;;5124444;27;20195;-87
2022/06/19 12:20:21;;;;;;;15.77;7.95;;;34.60;10.80;;;;;;5123699;27;20199;-88
2022/06/19 12:23:07;;;;;;;17.35;8.43;;;34.30;12.40;;;;;;5125002;27;20205;-87
2022/06/19 12:25:46;;;;;;;13.18;8.05;;;34.40;9.20;;;;;;5125699;27;20202;-87
2022/06/19 12:28:39;;;;;;;19.88;8.35;;;34.60;11.20;;;;;;5121280;27;20226;-87
2022/06/19 12:31:15;;;;;;;18.42;8.20;;;34.80;9.40;;;;;;5123848;27;20195;-87
2022/06/19 12:33:47;;;;;;;12.95;8.13;;;34.50;9.30;;;;;;5119399;27;20217;-87
2022/06/19 12:36:28;;;;;;;12.15;7.38;;;34.70;10.70;;;;;;5125892;27;20221;-88
2022/06/19 12:39:00;;;;;;;17.10;8.60;;;34.90;9.50;;;;;;5124222;27;20559;-89
2022/06/19 12:41:38;;;;;;;16.80;8.30;;;34.80;9.40;;;;;;5131225;27;20282;-89
2022/06/19 12:44:36;;;;;;;17.77;8.23;;;34.70;9.30;;;;;;5119695;27;20290;-87
2022/06/19 12:47:33;;;;;;;14.32;7.63;;;34.50;9.40;;;;;;5124887;27;20588;-89
2022/06/19 12:50:38;;;;;;;15.80;8.35;;;34.70;9.30;;;;;;5119042;27;20199;-87
2022/06/19 12:53:36;;;;;;;12.90;7.63;;;34.70;9.40;;;;;;5120374;27;20191;-88
2022/06/19 12:56:25;;;;;;;17.90;8.90;;;34.90;10.00;;;;;;5125404;27;20210;-88
2022/06/19 12:59:17;;;;;;;15.60;8.07;;;34.70;9.70;;;;;;5123557;27;20286;-90
2022/06/19 13:02:00;;;;;;;20.17;8.77;;;34.70;9.30;;;;;;5127164;27;21302;-87
2022/06/19 13:04:45;;;;;;;17.85;8.85;;;34.10;10.30;;;;;;5131665;27;20198;-86
2022/06/19 13:07:41;;;;;;;16.83;8.15;;;34.20;11.70;;;;;;5127409;27;20245;-87
2022/06/19 13:10:36;;;;;;;16.95;8.35;;;34.30;10.00;;;;;;5125291;27;20691;-87
2022/06/19 13:13:29;;;;;;;13.68;7.43;;;34.20;11.90;;;;;;5131674;27;20195;-88
2022/06/19 13:16:00;;;;;;;14.07;8.20;;;34.40;10.50;;;;;;5122549;27;20256;-87
2022/06/19 13:18:55;;;;;;;15.25;7.78;;;34.50;11.00;;;;;;5124810;27;20219;-90
2022/06/19 13:21:30;;;;;;;12.90;8.27;;;34.70;10.20;;;;;;5129036;27;20203;-88
2022/06/19 13:24:17;;;;;;;17.45;8.35;;;34.20;10.80;;;;;;5123599;27;20562;-87
2022/06/19 13:27:14;;;;;;;19.70;8.57;;;33.70;11.70;;;;;;5125363;27;20653;-89
2022/06/19 13:29:57;;;;;;;16.38;8.20;;;33.50;10.90;;;;;;5124591;27;20213;-86
2022/06/19 13:32:32;;;;;;;24.17;10.60;;;33.50;11.90;;;;;;5124852;27;20212;-88
2022/06/19 13:35:31;;;;;;;20.98;8.40;;;33.40;11.50;;;;;;5130009;27;20205;-87
2022/06/19 13:38:16;;;;;;;18.90;8.73;;;33.40;11.40;;;;;;5121755;27;20195;-88
2022/06/19 13:40:49;;;;;;;17.92;8.35;;;33.40;13.00;;;;;;5125434;27;20219;-88
2022/06/19 13:43:36;;;;;;;17.58;8.07;;;33.40;12.40;;;;;;5128158;27;20222;-88
2022/06/19 13:46:24;;;;;;;15.82;7.88;;;33.80;11.10;;;;;;5128981;27;20195;-88
2022/06/19 13:48:57;;;;;;;14.48;8.23;;;33.90;11.00;;;;;;5132662;27;20523;-88
2022/06/19 13:51:57;;;;;;;13.45;8.07;;;33.90;12.00;;;;;;5129487;27;20226;-86
2022/06/19 13:55:02;;;;;;;11.93;8.20;;;33.90;10.90;;;;;;5123414;27;20195;-88
2022/06/19 13:57:38;;;;;;;20.30;8.40;;;34.10;10.70;;;;;;5127401;27;20554;-88
2022/06/19 14:00:25;;;;;;;19.75;10.23;;;34.20;11.10;;;;;;5125189;27;20197;-89
2022/06/19 14:03:16;;;;;;;22.08;9.57;;;33.90;12.40;;;;;;5129321;27;20197;-90
2022/06/19 14:06:04;;;;;;;15.38;8.32;;;33.20;13.30;;;;;;5124211;27;20209;-90
2022/06/19 14:08:41;;;;;;;24.83;9.82;;;32.60;14.60;;;;;;5119743;27;20210;-89
2022/06/19 14:12:03;;;;;;;17.10;8.60;;;32.70;15.50;;;;;;5125956;27;21573;-86
2022/06/19 14:14:21;;;;;;;20.63;8.55;;;33.00;14.50;;;;;;5125708;27;20195;-86
2022/06/19 14:17:06;;;;;;;15.38;7.95;;;33.30;13.50;;;;;;5129041;27;20202;-88
2022/06/19 14:19:40;;;;;;;18.90;9.48;;;33.50;11.40;;;;;;5122039;27;20256;-88
2022/06/19 14:22:21;;;;;;;14.57;8.90;;;33.60;11.10;;;;;;5123577;27;20198;-89
2022/06/19 14:25:08;;;;;;;16.38;8.07;;;33.80;11.80;;;;;;5128548;27;20187;-87
2022/06/19 14:27:53;;;;;;;16.27;7.82;;;34.00;11.60;;;;;;5118524;27;20194;-89
2022/06/19 14:30:26;;;;;;;18.50;8.30;;;34.10;11.60;;;;;;5124448;27;20214;-88
2022/06/19 14:33:00;;;;;;;16.85;7.63;;;34.10;10.50;;;;;;5124349;27;20214;-88